Time;durP1;ratioP1;P1;durP2;ratioP2;P2;SDS_P1;SDS_P2;PMS_P1;PMS_P2;Temp;Humidity;BMP_temperature;BMP_pressure;BME280_temperature;BME280_humidity;BME280_pressure;Samples;Min_cycle;Max_cycle;Signal;HPM_P1;HPM_P2
2022/03/23 00:00:57;;;;;;;25.38;15.52;;;4.40;91.10;;;;;;5133533;27;20039;-39
2022/03/23 00:03:23;;;;;;;30.83;17.10;;;4.30;91.90;;;;;;5143260;27;20461;-39
2022/03/23 00:05:48;;;;;;;30.10;16.60;;;4.30;92.20;;;;;;5151349;27;20033;-39
2022/03/23 00:08:14;;;;;;;29.67;17.63;;;4.30;91.50;;;;;;5138697;27;20023;-39
2022/03/23 00:10:39;;;;;;;27.55;17.30;;;4.20;92.00;;;;;;5152283;27;20152;-39
2022/03/23 00:13:05;;;;;;;29.85;17.25;;;4.20;92.50;;;;;;5142872;27;20040;-39
2022/03/23 00:15:31;;;;;;;30.38;17.92;;;4.10;92.10;;;;;;5141438;27;20027;-39
2022/03/23 00:17:57;;;;;;;26.75;16.58;;;4.10;93.10;;;;;;5143974;27;20015;-39
2022/03/23 00:20:24;;;;;;;31.50;17.55;;;4.10;93.30;;;;;;5143479;27;20034;-39
2022/03/23 00:22:50;;;;;;;24.23;15.45;;;4.10;93.40;;;;;;5152009;27;20416;-39
2022/03/23 00:25:16;;;;;;;27.17;16.35;;;4.10;93.10;;;;;;5151901;27;20050;-39
2022/03/23 00:27:42;;;;;;;27.48;17.10;;;4.00;93.40;;;;;;5151069;27;20055;-39
2022/03/23 00:30:08;;;;;;;23.60;16.33;;;4.00;93.50;;;;;;5151998;27;20603;-39
2022/03/23 00:32:34;;;;;;;35.15;19.05;;;4.00;93.10;;;;;;5151798;27;20027;-39
2022/03/23 00:35:00;;;;;;;28.95;17.95;;;3.90;92.90;;;;;;5135034;27;20057;-39
2022/03/23 00:37:26;;;;;;;30.67;17.13;;;3.80;93.20;;;;;;5148709;27;20585;-39
2022/03/23 00:39:52;;;;;;;33.45;17.60;;;3.80;93.80;;;;;;5151569;27;20030;-39
2022/03/23 00:42:18;;;;;;;32.47;17.17;;;3.80;93.80;;;;;;5151437;27;20019;-39
2022/03/23 00:44:43;;;;;;;31.10;17.92;;;3.80;93.80;;;;;;5151856;27;20027;-39
2022/03/23 00:47:09;;;;;;;24.67;16.08;;;3.80;93.50;;;;;;5150833;27;20058;-39
2022/03/23 00:49:35;;;;;;;26.77;16.55;;;3.80;94.30;;;;;;5151235;27;20364;-39
2022/03/23 00:52:05;;;;;;;25.17;16.58;;;3.80;94.00;;;;;;5151277;27;20038;-39
2022/03/23 00:54:34;;;;;;;30.75;16.38;;;3.70;93.50;;;;;;5135662;27;20031;-39
2022/03/23 00:57:01;;;;;;;29.67;17.38;;;3.70;93.40;;;;;;5109364;28;20027;-40
2022/03/23 00:59:26;;;;;;;25.27;16.58;;;3.60;94.10;;;;;;5125990;28;20102;-39
2022/03/23 01:01:52;;;;;;;27.48;16.38;;;3.50;96.30;;;;;;5134534;27;20171;-39
2022/03/23 01:04:18;;;;;;;29.98;17.75;;;3.40;97.50;;;;;;5142067;27;20539;-39
2022/03/23 01:06:43;;;;;;;32.03;18.27;;;3.50;98.70;;;;;;5144328;27;20262;-39
2022/03/23 01:09:09;;;;;;;33.03;18.75;;;3.40;99.10;;;;;;5137536;27;20041;-39
2022/03/23 01:11:37;;;;;;;26.70;16.85;;;3.40;99.90;;;;;;5131682;27;20042;-39
2022/03/23 01:14:03;;;;;;;28.67;17.13;;;3.30;99.90;;;;;;5135705;27;20039;-39
2022/03/23 01:16:28;;;;;;;32.15;17.45;;;3.40;99.90;;;;;;5141657;27;20075;-39
2022/03/23 01:18:54;;;;;;;27.75;16.70;;;3.30;99.90;;;;;;5124107;27;20047;-40
2022/03/23 01:21:20;;;;;;;29.30;17.38;;;3.20;99.80;;;;;;5117961;28;20046;-39
2022/03/23 01:23:46;;;;;;;28.70;16.52;;;3.20;99.90;;;;;;5117579;28;20464;-39
2022/03/23 01:26:11;;;;;;;27.48;15.82;;;3.20;99.90;;;;;;5119372;28;20055;-39
2022/03/23 01:28:37;;;;;;;28.65;16.98;;;3.20;99.90;;;;;;5126962;27;20026;-39
2022/03/23 01:31:03;;;;;;;32.55;17.90;;;3.20;99.60;;;;;;5123584;27;20043;-39
2022/03/23 01:33:28;;;;;;;29.67;16.83;;;3.10;98.70;;;;;;5120445;27;20580;-39
2022/03/23 01:35:54;;;;;;;29.48;17.33;;;3.10;99.90;;;;;;5140466;27;20087;-39
2022/03/23 01:38:19;;;;;;;27.13;16.42;;;3.00;99.90;;;;;;5151149;27;20015;-38
2022/03/23 01:40:46;;;;;;;26.88;16.15;;;3.00;99.90;;;;;;5151115;27;20102;-40
2022/03/23 01:43:11;;;;;;;26.92;17.73;;;3.00;99.90;;;;;;5151079;27;20049;-39
2022/03/23 01:45:37;;;;;;;29.45;18.00;;;2.90;99.90;;;;;;5134575;27;20022;-41
2022/03/23 01:48:02;;;;;;;29.02;18.02;;;2.90;99.90;;;;;;5145725;27;20027;-40
2022/03/23 01:50:29;;;;;;;36.17;19.52;;;2.90;99.90;;;;;;5154822;27;20460;-39
2022/03/23 01:52:55;;;;;;;29.52;17.83;;;2.90;99.90;;;;;;5147180;27;20367;-40
2022/03/23 01:55:20;;;;;;;29.83;17.25;;;2.80;99.90;;;;;;5144422;27;20030;-39
2022/03/23 01:57:49;;;;;;;29.15;17.33;;;2.80;99.90;;;;;;5153760;27;20529;-39
2022/03/23 02:00:16;;;;;;;35.30;17.33;;;2.80;99.90;;;;;;5139622;27;20487;-39
2022/03/23 02:02:45;;;;;;;34.05;18.63;;;2.80;99.90;;;;;;5144199;27;20528;-39
2022/03/23 02:05:12;;;;;;;30.13;18.25;;;2.80;99.90;;;;;;5153158;27;20042;-39
2022/03/23 02:07:39;;;;;;;30.38;17.48;;;2.80;99.90;;;;;;5137688;27;20540;-39
2022/03/23 02:10:06;;;;;;;27.88;17.20;;;2.70;99.90;;;;;;5147800;27;20028;-39
2022/03/23 02:12:31;;;;;;;25.40;15.77;;;2.70;99.90;;;;;;5145509;27;20137;-39
2022/03/23 02:14:58;;;;;;;27.67;16.52;;;2.80;99.90;;;;;;5135906;27;20106;-39
2022/03/23 02:17:25;;;;;;;28.98;18.17;;;2.70;99.90;;;;;;5127349;27;20531;-39
2022/03/23 02:19:51;;;;;;;29.65;18.58;;;2.80;99.90;;;;;;5120974;27;20028;-38
2022/03/23 02:22:17;;;;;;;33.05;19.30;;;2.70;99.90;;;;;;5118844;27;20067;-39
2022/03/23 02:24:46;;;;;;;34.75;19.23;;;2.80;99.90;;;;;;5122727;27;20031;-38
2022/03/23 02:27:12;;;;;;;35.72;19.50;;;2.70;99.90;;;;;;5120411;27;20026;-39
2022/03/23 02:29:38;;;;;;;27.83;16.90;;;2.80;99.90;;;;;;5123184;27;20020;-38
2022/03/23 02:32:05;;;;;;;28.00;18.10;;;2.70;99.90;;;;;;5120654;27;20034;-38
2022/03/23 02:34:30;;;;;;;30.77;17.40;;;2.70;99.90;;;;;;5129335;27;20367;-38
2022/03/23 02:36:59;;;;;;;29.83;18.83;;;2.60;99.90;;;;;;5151878;27;20025;-39
2022/03/23 02:39:28;;;;;;;29.48;18.42;;;2.60;99.90;;;;;;5152488;27;20026;-39
2022/03/23 02:41:54;;;;;;;31.38;17.77;;;2.60;99.90;;;;;;5148225;27;20611;-38
2022/03/23 02:44:20;;;;;;;30.13;18.73;;;2.50;99.90;;;;;;5143906;27;20094;-39
2022/03/23 02:46:46;;;;;;;33.47;19.48;;;2.50;99.90;;;;;;5140576;27;20705;-38
2022/03/23 02:49:12;;;;;;;30.48;17.83;;;2.50;99.90;;;;;;5139330;27;20056;-38
2022/03/23 02:51:38;;;;;;;31.15;17.77;;;2.40;99.90;;;;;;5153344;27;20023;-38
2022/03/23 03:02:59;;;;;;;31.38;17.98;;;2.50;99.90;;;;;;5089098;27;20083;-38
2022/03/23 03:05:25;;;;;;;32.63;18.40;;;2.30;99.90;;;;;;5152877;27;20463;-38
2022/03/23 03:10:34;;;;;;;32.40;17.65;;;2.50;99.70;;;;;;5153378;27;20025;-39
2022/03/23 03:13:00;;;;;;;31.38;17.83;;;2.50;99.60;;;;;;5148797;27;20027;-39
2022/03/23 03:15:26;;;;;;;32.83;17.80;;;2.50;99.90;;;;;;5134729;27;20027;-39
2022/03/23 03:17:52;;;;;;;28.38;17.67;;;2.50;99.90;;;;;;5136111;27;20122;-39
2022/03/23 03:20:18;;;;;;;26.88;16.67;;;2.40;99.90;;;;;;5151224;27;20027;-39
2022/03/23 03:22:45;;;;;;;29.65;17.40;;;2.30;99.90;;;;;;5141491;27;20024;-39
2022/03/23 03:25:15;;;;;;;33.38;19.20;;;2.30;99.90;;;;;;5150010;27;20030;-39
2022/03/23 03:27:42;;;;;;;37.58;20.48;;;2.30;99.90;;;;;;5152353;27;20027;-39
2022/03/23 03:30:10;;;;;;;36.90;20.40;;;2.30;99.90;;;;;;5153352;27;20023;-40
2022/03/23 03:32:37;;;;;;;30.85;17.88;;;2.30;99.90;;;;;;5146969;27;20015;-39
2022/03/23 03:35:03;;;;;;;32.10;18.10;;;2.20;99.90;;;;;;5148860;27;20092;-39
2022/03/23 03:37:29;;;;;;;29.23;17.83;;;2.30;99.90;;;;;;5151105;27;20515;-38
2022/03/23 03:39:55;;;;;;;30.13;17.63;;;2.30;99.90;;;;;;5153155;27;20113;-39
2022/03/23 03:42:20;;;;;;;32.78;18.25;;;2.30;99.90;;;;;;5153040;27;20072;-39
2022/03/23 03:44:50;;;;;;;28.63;16.88;;;2.20;99.90;;;;;;5147732;27;20034;-39
2022/03/23 03:47:16;;;;;;;30.15;18.40;;;2.10;99.90;;;;;;5138748;27;20380;-39
2022/03/23 03:49:42;;;;;;;35.72;17.58;;;2.10;99.90;;;;;;5152855;27;20027;-39
2022/03/23 03:52:07;;;;;;;32.67;18.65;;;2.10;99.90;;;;;;5152731;27;20037;-39
2022/03/23 03:54:33;;;;;;;27.75;17.08;;;2.10;99.90;;;;;;5152617;27;20371;-39
2022/03/23 03:56:58;;;;;;;26.75;16.25;;;2.10;99.90;;;;;;5150717;27;20067;-39
2022/03/23 03:59:23;;;;;;;29.48;17.08;;;2.10;99.90;;;;;;5152444;27;20030;-39
2022/03/23 04:01:49;;;;;;;30.75;18.00;;;2.10;99.90;;;;;;5152193;27;20695;-39
2022/03/23 04:04:15;;;;;;;27.73;17.00;;;2.00;99.90;;;;;;5152469;27;20396;-41
2022/03/23 04:06:41;;;;;;;29.02;18.20;;;1.90;99.90;;;;;;5151712;27;20042;-38
2022/03/23 04:09:06;;;;;;;26.60;17.02;;;1.80;99.90;;;;;;5145988;27;20650;-39
2022/03/23 04:11:32;;;;;;;34.88;18.73;;;1.90;99.90;;;;;;5143663;27;20055;-39
2022/03/23 04:13:57;;;;;;;32.42;18.50;;;1.80;99.90;;;;;;5144443;27;20069;-39
2022/03/23 04:16:23;;;;;;;30.45;17.48;;;1.70;99.90;;;;;;5135589;27;20035;-39
2022/03/23 04:18:48;;;;;;;31.42;18.95;;;1.70;99.90;;;;;;5142796;27;20015;-39
2022/03/23 04:21:14;;;;;;;30.45;18.30;;;1.70;99.90;;;;;;5138551;27;20063;-39
2022/03/23 04:23:40;;;;;;;31.33;19.08;;;1.70;99.90;;;;;;5141273;27;20596;-39
2022/03/23 04:26:05;;;;;;;33.17;18.42;;;1.70;99.90;;;;;;5145301;27;20034;-39
2022/03/23 04:28:31;;;;;;;34.78;19.42;;;1.70;99.90;;;;;;5140989;27;20022;-40
2022/03/23 04:30:57;;;;;;;33.63;19.02;;;1.60;99.90;;;;;;5151116;27;20038;-40
2022/03/23 04:33:22;;;;;;;28.17;16.42;;;1.60;99.90;;;;;;5143153;27;20098;-39
2022/03/23 04:35:48;;;;;;;30.08;17.77;;;1.60;99.90;;;;;;5143965;27;20111;-39
2022/03/23 04:38:13;;;;;;;33.20;19.90;;;1.60;99.90;;;;;;5151172;27;20026;-39
2022/03/23 04:40:39;;;;;;;34.63;19.20;;;1.60;99.90;;;;;;5151542;27;20405;-39
2022/03/23 04:43:05;;;;;;;35.45;19.13;;;1.50;99.90;;;;;;5151779;27;20540;-39
2022/03/23 04:45:30;;;;;;;31.42;18.23;;;1.50;99.90;;;;;;5133925;27;20106;-39
2022/03/23 04:47:56;;;;;;;31.38;17.17;;;1.40;99.90;;;;;;5142823;27;20465;-39
2022/03/23 04:50:22;;;;;;;33.03;18.52;;;1.40;99.90;;;;;;5151674;27;20030;-39
2022/03/23 04:52:52;;;;;;;35.08;18.70;;;1.50;99.90;;;;;;5141464;27;20019;-38
2022/03/23 04:55:18;;;;;;;33.25;18.25;;;1.50;99.90;;;;;;5137314;27;20027;-40
2022/03/23 04:57:43;;;;;;;38.60;19.30;;;1.50;99.90;;;;;;5150827;27;20031;-39
2022/03/23 05:00:13;;;;;;;32.15;18.45;;;1.60;99.90;;;;;;5136172;27;20056;-39
2022/03/23 05:02:39;;;;;;;34.35;19.33;;;1.60;99.90;;;;;;5142926;27;20025;-39
2022/03/23 05:05:06;;;;;;;31.08;16.80;;;1.60;99.90;;;;;;5147522;27;20121;-39
2022/03/23 05:07:32;;;;;;;32.13;18.00;;;1.50;99.90;;;;;;5140927;27;20061;-39
2022/03/23 05:09:57;;;;;;;32.00;17.67;;;1.50;99.90;;;;;;5151631;27;20515;-39
2022/03/23 05:12:23;;;;;;;29.58;16.50;;;1.50;99.90;;;;;;5148466;27;20023;-39
2022/03/23 05:14:48;;;;;;;37.05;19.35;;;1.50;99.90;;;;;;5133230;27;20027;-39
2022/03/23 05:17:15;;;;;;;32.40;17.20;;;1.40;99.90;;;;;;5148214;27;20027;-40
2022/03/23 05:19:40;;;;;;;33.85;17.65;;;1.30;99.90;;;;;;5151802;27;20777;-39
2022/03/23 05:22:06;;;;;;;29.48;18.23;;;1.30;99.90;;;;;;5151112;27;20125;-39
2022/03/23 05:24:32;;;;;;;33.45;18.25;;;1.30;99.90;;;;;;5121707;27;20023;-40
2022/03/23 05:26:57;;;;;;;34.30;18.85;;;1.40;99.90;;;;;;5126002;27;20020;-39
2022/03/23 05:29:22;;;;;;;31.52;18.55;;;1.40;99.90;;;;;;5123447;27;20034;-40
2022/03/23 05:31:48;;;;;;;35.05;18.65;;;1.30;99.90;;;;;;5126536;27;20027;-39
2022/03/23 05:34:13;;;;;;;30.08;17.70;;;1.30;99.90;;;;;;5122011;27;20020;-39
2022/03/23 05:36:40;;;;;;;33.85;19.20;;;1.30;99.90;;;;;;5121059;27;20054;-40
2022/03/23 05:39:06;;;;;;;30.27;17.75;;;1.30;99.90;;;;;;5125079;27;20024;-40
2022/03/23 05:41:31;;;;;;;32.80;18.80;;;1.30;99.90;;;;;;5122574;27;20076;-40
2022/03/23 05:43:57;;;;;;;32.80;17.95;;;1.40;99.90;;;;;;5124453;27;20031;-40
2022/03/23 05:46:22;;;;;;;36.40;19.00;;;1.30;99.90;;;;;;5123267;27;20046;-40
2022/03/23 05:48:48;;;;;;;30.05;17.42;;;1.30;99.90;;;;;;5120959;27;20030;-40
2022/03/23 05:51:14;;;;;;;29.33;16.95;;;1.40;99.90;;;;;;5122414;27;20042;-41
2022/03/23 05:53:40;;;;;;;27.73;16.63;;;1.40;99.90;;;;;;5125008;27;20028;-41
2022/03/23 05:56:07;;;;;;;34.15;19.02;;;1.40;99.90;;;;;;5120807;27;20028;-40
2022/03/23 05:58:34;;;;;;;29.60;18.30;;;1.50;99.90;;;;;;5116842;27;20031;-39
2022/03/23 06:01:00;;;;;;;30.48;17.65;;;1.50;99.90;;;;;;5129641;27;20530;-40
2022/03/23 06:03:25;;;;;;;30.55;17.48;;;1.60;99.90;;;;;;5129240;27;20107;-40
2022/03/23 06:05:51;;;;;;;26.88;16.35;;;1.60;99.90;;;;;;5140617;27;20098;-40
2022/03/23 06:08:16;;;;;;;29.85;17.55;;;1.60;99.90;;;;;;5123101;27;20065;-40
2022/03/23 06:10:42;;;;;;;35.88;19.60;;;1.70;99.90;;;;;;5117886;27;20059;-40
2022/03/23 06:13:07;;;;;;;30.98;17.25;;;1.70;99.90;;;;;;5120459;27;20027;-40
2022/03/23 06:15:33;;;;;;;34.42;19.23;;;1.80;99.90;;;;;;5128776;27;20022;-40
2022/03/23 06:17:58;;;;;;;31.33;19.67;;;1.80;99.90;;;;;;5121131;27;20728;-40
2022/03/23 06:20:24;;;;;;;31.02;19.48;;;1.90;99.90;;;;;;5122705;27;20104;-40
2022/03/23 06:22:49;;;;;;;33.95;19.55;;;1.90;99.90;;;;;;5121859;27;20039;-40
2022/03/23 06:25:15;;;;;;;32.40;19.50;;;2.00;99.90;;;;;;5122275;27;20027;-40
2022/03/23 06:27:40;;;;;;;33.15;20.48;;;2.10;99.90;;;;;;5116484;27;20023;-40
2022/03/23 06:30:07;;;;;;;30.25;18.30;;;2.10;99.90;;;;;;5131361;27;20050;-39
2022/03/23 06:32:33;;;;;;;30.20;19.20;;;2.20;99.90;;;;;;5120034;27;20023;-39
2022/03/23 06:35:00;;;;;;;31.35;17.95;;;2.30;99.90;;;;;;5137112;27;20023;-39
2022/03/23 06:37:26;;;;;;;32.95;19.52;;;2.40;99.90;;;;;;5131116;27;20016;-39
2022/03/23 06:39:53;;;;;;;36.78;20.02;;;2.50;99.90;;;;;;5138737;27;20035;-39
2022/03/23 06:42:19;;;;;;;38.25;21.05;;;2.50;99.90;;;;;;5135344;27;20046;-39
2022/03/23 06:44:46;;;;;;;29.27;18.85;;;2.60;99.90;;;;;;5136442;27;20028;-41
2022/03/23 06:47:12;;;;;;;30.98;19.00;;;2.70;99.90;;;;;;5126306;27;20030;-39
2022/03/23 06:49:39;;;;;;;35.03;20.70;;;2.80;99.90;;;;;;5139132;27;20053;-39
2022/03/23 06:52:05;;;;;;;37.78;21.38;;;2.90;99.90;;;;;;5130127;27;20112;-38
2022/03/23 06:54:31;;;;;;;29.33;19.02;;;3.00;99.90;;;;;;5137942;27;20100;-39
2022/03/23 06:56:57;;;;;;;31.55;20.02;;;3.10;99.90;;;;;;5120439;27;20484;-40
2022/03/23 06:59:23;;;;;;;38.60;20.75;;;3.20;99.90;;;;;;5124133;27;20027;-39
2022/03/23 07:01:49;;;;;;;32.95;19.60;;;3.30;99.90;;;;;;5120225;27;20106;-39
2022/03/23 07:04:15;;;;;;;37.15;21.65;;;3.30;99.90;;;;;;5120757;27;20683;-41
2022/03/23 07:06:41;;;;;;;34.33;20.50;;;3.50;99.90;;;;;;5123430;27;20542;-40
2022/03/23 07:11:52;;;;;;;38.65;21.88;;;3.60;99.90;;;;;;5121546;27;20047;-39
2022/03/23 07:14:18;;;;;;;40.85;21.67;;;3.70;99.90;;;;;;5124253;27;20015;-40
2022/03/23 07:16:44;;;;;;;37.30;23.48;;;3.80;99.90;;;;;;5120753;27;20022;-43
2022/03/23 07:19:10;;;;;;;36.85;22.02;;;4.00;99.90;;;;;;5122421;27;20023;-41
2022/03/23 07:21:36;;;;;;;40.47;22.15;;;4.10;99.90;;;;;;5119423;27;20026;-39
2022/03/23 07:24:02;;;;;;;34.35;21.70;;;4.20;99.90;;;;;;5122166;27;20036;-39
2022/03/23 07:26:28;;;;;;;42.30;23.90;;;4.20;99.90;;;;;;5132212;27;20043;-39
2022/03/23 07:28:53;;;;;;;40.20;23.45;;;4.30;99.40;;;;;;5136764;27;20019;-39
2022/03/23 07:31:19;;;;;;;40.80;24.20;;;4.40;98.70;;;;;;5127762;27;20096;-39
2022/03/23 07:33:44;;;;;;;36.55;22.67;;;4.50;99.30;;;;;;5131770;27;20027;-39
2022/03/23 07:36:13;;;;;;;38.08;22.00;;;4.60;99.30;;;;;;5131421;27;20499;-39
2022/03/23 07:38:41;;;;;;;41.05;23.95;;;4.70;99.10;;;;;;5122399;27;20031;-39
2022/03/23 07:41:06;;;;;;;34.70;21.90;;;4.80;99.30;;;;;;5132071;27;20109;-39
2022/03/23 07:43:32;;;;;;;46.03;24.40;;;4.90;98.90;;;;;;5121337;27;20114;-39
2022/03/23 07:45:58;;;;;;;36.05;22.08;;;5.00;98.60;;;;;;5117165;27;20030;-39
2022/03/23 07:48:24;;;;;;;33.20;21.30;;;5.00;98.60;;;;;;5135475;27;20039;-39
2022/03/23 07:50:51;;;;;;;34.42;21.45;;;5.10;98.30;;;;;;5129987;27;20511;-40
2022/03/23 07:53:17;;;;;;;41.25;24.23;;;5.30;98.00;;;;;;5132954;27;20023;-39
2022/03/23 07:55:42;;;;;;;35.83;22.95;;;5.40;97.40;;;;;;5137097;27;20744;-39
2022/03/23 07:58:08;;;;;;;36.17;22.30;;;5.50;97.20;;;;;;5145566;27;20030;-40
2022/03/23 08:00:34;;;;;;;38.78;23.73;;;5.60;96.70;;;;;;5125695;27;20019;-39
2022/03/23 08:02:59;;;;;;;38.63;23.63;;;5.70;96.80;;;;;;5145896;27;20034;-39
2022/03/23 08:05:25;;;;;;;37.65;23.88;;;5.80;95.60;;;;;;5116899;27;20031;-39
2022/03/23 08:07:51;;;;;;;40.33;23.15;;;6.00;95.20;;;;;;5110436;28;20046;-39
2022/03/23 08:10:17;;;;;;;35.75;21.90;;;6.10;94.90;;;;;;5120853;27;20026;-39
2022/03/23 08:12:42;;;;;;;38.88;24.02;;;6.30;94.50;;;;;;5113319;27;20027;-39
2022/03/23 08:15:09;;;;;;;38.10;22.30;;;6.40;94.40;;;;;;5118498;27;20023;-39
2022/03/23 08:17:38;;;;;;;36.83;23.35;;;6.50;93.90;;;;;;5130623;27;20026;-39
2022/03/23 08:22:52;;;;;;;34.42;23.30;;;7.00;92.40;;;;;;5127173;27;20066;-39
2022/03/23 08:25:18;;;;;;;36.72;23.90;;;7.20;91.60;;;;;;5129570;27;20050;-39
2022/03/23 08:27:44;;;;;;;35.28;23.65;;;7.90;91.00;;;;;;5136543;27;20491;-45
2022/03/23 08:30:10;;;;;;;30.95;22.65;;;9.20;90.40;;;;;;5114563;27;20547;-45
2022/03/23 08:32:35;;;;;;;32.38;22.63;;;11.00;80.90;;;;;;5130520;27;20126;-47
2022/03/23 08:35:01;;;;;;;30.90;22.55;;;13.20;72.30;;;;;;5147511;27;20159;-45
2022/03/23 08:37:28;;;;;;;29.80;23.25;;;14.90;59.90;;;;;;5149502;27;20518;-45
2022/03/23 08:39:56;;;;;;;28.50;24.35;;;16.60;55.00;;;;;;5130342;27;20600;-45
2022/03/23 08:42:21;;;;;;;32.67;22.75;;;17.90;50.50;;;;;;5138853;27;20391;-44
2022/03/23 08:44:47;;;;;;;25.20;20.75;;;18.70;48.00;;;;;;5140946;27;20273;-46
2022/03/23 08:47:16;;;;;;;24.35;19.10;;;19.90;46.40;;;;;;5129629;27;20047;-44
2022/03/23 08:49:41;;;;;;;24.92;20.48;;;21.20;43.10;;;;;;5142267;27;20025;-48
2022/03/23 08:52:07;;;;;;;24.42;19.73;;;21.90;39.80;;;;;;5144386;27;20023;-45
2022/03/23 08:54:33;;;;;;;28.17;23.98;;;22.70;39.50;;;;;;5138088;27;20023;-45
2022/03/23 08:56:58;;;;;;;23.13;20.65;;;22.20;37.50;;;;;;5114414;27;20092;-46
2022/03/23 08:59:24;;;;;;;21.67;19.35;;;23.30;36.90;;;;;;5130027;27;20104;-45
2022/03/23 09:01:50;;;;;;;22.98;19.77;;;24.30;36.10;;;;;;5122800;27;20049;-45
2022/03/23 09:04:16;;;;;;;21.25;19.10;;;24.80;35.90;;;;;;5123405;27;20023;-48
2022/03/23 09:06:41;;;;;;;28.98;22.35;;;25.50;33.90;;;;;;5122365;27;20042;-45
2022/03/23 09:09:07;;;;;;;22.88;19.73;;;24.70;32.40;;;;;;5123401;27;20035;-47
2022/03/23 09:11:32;;;;;;;24.17;20.40;;;25.10;33.80;;;;;;5123821;27;20043;-49
2022/03/23 09:13:58;;;;;;;27.42;22.45;;;25.30;34.90;;;;;;5132415;27;20031;-49
2022/03/23 09:16:24;;;;;;;21.77;19.58;;;25.40;33.40;;;;;;5117760;27;20028;-49
2022/03/23 09:18:50;;;;;;;22.08;19.77;;;25.90;34.20;;;;;;5121000;27;20011;-48
2022/03/23 09:21:16;;;;;;;24.60;20.17;;;25.90;34.70;;;;;;5118430;27;20024;-48
2022/03/23 09:23:43;;;;;;;21.20;18.75;;;26.50;33.00;;;;;;5122687;27;20020;-48
2022/03/23 09:26:11;;;;;;;27.23;20.30;;;26.70;32.90;;;;;;5123377;27;20167;-46
2022/03/23 09:28:38;;;;;;;21.45;19.27;;;27.10;32.80;;;;;;5127545;27;20035;-47
2022/03/23 09:31:04;;;;;;;22.70;20.30;;;27.20;31.90;;;;;;5123997;27;20023;-48
2022/03/23 09:33:30;;;;;;;20.80;18.73;;;27.90;31.90;;;;;;5126331;27;20110;-47
2022/03/23 09:35:57;;;;;;;20.10;18.10;;;27.90;32.20;;;;;;5120093;27;20073;-47
2022/03/23 09:38:22;;;;;;;19.30;17.40;;;28.20;31.20;;;;;;5116678;27;20027;-41
2022/03/23 09:40:50;;;;;;;21.15;18.95;;;28.30;31.50;;;;;;5120422;27;20030;-42
2022/03/23 09:43:21;;;;;;;20.13;18.08;;;28.50;32.40;;;;;;5123863;27;20090;-45
2022/03/23 09:45:47;;;;;;;19.83;17.83;;;28.80;30.90;;;;;;5118939;27;20024;-42
2022/03/23 09:48:16;;;;;;;20.98;17.58;;;28.60;31.30;;;;;;5124648;27;20470;-40
2022/03/23 09:50:45;;;;;;;20.63;18.23;;;28.60;32.10;;;;;;5126046;27;20057;-40
2022/03/23 09:53:11;;;;;;;23.65;18.98;;;29.00;31.90;;;;;;5123446;27;20484;-44
2022/03/23 09:55:36;;;;;;;21.88;17.83;;;29.10;31.00;;;;;;5113719;27;20384;-42
2022/03/23 09:58:03;;;;;;;20.85;18.73;;;30.10;31.90;;;;;;5117675;27;20027;-42
2022/03/23 10:00:38;;;;;;;22.83;19.50;;;30.50;29.50;;;;;;5125641;27;20026;-41
2022/03/23 10:03:46;;;;;;;22.60;20.25;;;29.60;30.20;;;;;;5120969;27;20480;-40
2022/03/23 10:06:34;;;;;;;23.40;19.85;;;29.10;30.00;;;;;;5125578;27;20045;-41
2022/03/23 10:09:14;;;;;;;21.42;19.23;;;29.10;31.90;;;;;;5119685;27;20064;-40
2022/03/23 10:12:23;;;;;;;22.88;19.55;;;29.20;31.00;;;;;;5121487;27;20092;-40
2022/03/23 10:15:13;;;;;;;23.75;20.80;;;29.80;31.00;;;;;;5124025;27;20038;-40
2022/03/23 10:18:16;;;;;;;24.20;19.48;;;29.00;32.10;;;;;;5117758;27;20020;-41
2022/03/23 10:20:41;;;;;;;22.70;20.30;;;29.30;30.10;;;;;;5120342;27;20106;-41
2022/03/23 10:23:07;;;;;;;22.70;20.35;;;29.50;30.00;;;;;;5122202;27;20166;-40
2022/03/23 10:25:32;;;;;;;22.10;20.00;;;29.60;30.00;;;;;;5129759;27;20035;-40
2022/03/23 10:27:58;;;;;;;22.83;20.15;;;30.10;30.00;;;;;;5129142;27;20070;-40
2022/03/23 10:30:34;;;;;;;21.52;19.13;;;30.80;29.40;;;;;;5117340;27;20032;-40
2022/03/23 10:33:00;;;;;;;22.58;20.17;;;30.80;29.40;;;;;;5119191;27;20105;-41
2022/03/23 10:35:35;;;;;;;22.20;19.83;;;30.80;30.10;;;;;;5136127;27;20463;-40
2022/03/23 10:38:23;;;;;;;23.58;20.58;;;30.50;30.20;;;;;;5121014;27;20027;-40
2022/03/23 10:40:52;;;;;;;24.65;21.20;;;30.50;30.30;;;;;;5125387;27;20048;-40
2022/03/23 10:43:19;;;;;;;;;;;31.00;30.10;;;;;;5121580;27;20023;-40
2022/03/23 10:45:44;;;;;;;21.70;19.48;;;30.90;29.20;;;;;;5116242;27;19915;-40
2022/03/23 10:48:13;;;;;;;22.85;19.98;;;31.00;29.80;;;;;;5125954;27;20027;-39
2022/03/23 10:50:52;;;;;;;20.90;18.77;;;30.30;29.70;;;;;;5121925;27;20020;-40
2022/03/23 10:53:29;;;;;;;;;;;30.60;29.70;;;;;;5125593;27;20019;-39
2022/03/23 10:55:55;;;;;;;21.98;18.15;;;30.40;28.70;;;;;;5118769;27;19919;-41
2022/03/23 10:58:25;;;;;;;21.98;19.75;;;30.00;29.10;;;;;;5116745;27;20510;-40
2022/03/23 11:00:55;;;;;;;21.58;19.27;;;30.00;29.30;;;;;;5120866;27;20403;-41
2022/03/23 11:03:43;;;;;;;20.15;17.33;;;29.90;30.00;;;;;;5119039;27;20015;-40
2022/03/23 11:06:11;;;;;;;20.25;17.05;;;30.30;29.70;;;;;;5116728;27;20041;-41
2022/03/23 11:08:36;;;;;;;20.63;17.50;;;30.50;29.20;;;;;;5119463;27;20030;-40
2022/03/23 11:16:50;;;;;;;20.92;18.73;;;30.70;28.60;;;;;;5120630;27;20030;-39
2022/03/23 11:19:21;;;;;;;22.48;17.63;;;30.80;29.30;;;;;;5119008;27;20107;-41
2022/03/23 11:22:09;;;;;;;22.92;18.95;;;30.60;29.00;;;;;;5117942;27;20215;-42
2022/03/23 11:24:43;;;;;;;18.63;16.60;;;31.20;27.90;;;;;;5109166;27;20234;-41
2022/03/23 11:27:10;;;;;;;21.20;17.65;;;31.30;28.90;;;;;;5118557;27;20055;-42
2022/03/23 11:29:37;;;;;;;24.00;17.48;;;31.50;28.20;;;;;;5120673;27;20053;-41
2022/03/23 11:32:08;;;;;;;18.23;16.35;;;31.90;29.30;;;;;;5116619;27;20032;-41
2022/03/23 11:34:36;;;;;;;19.25;17.17;;;31.80;28.60;;;;;;5121105;27;20060;-40
2022/03/23 11:37:03;;;;;;;20.60;18.40;;;31.80;28.70;;;;;;5123443;27;20019;-41
2022/03/23 11:39:30;;;;;;;18.35;16.50;;;31.70;28.60;;;;;;5116133;27;20090;-40
2022/03/23 11:41:58;;;;;;;22.75;18.23;;;32.30;27.90;;;;;;5118592;27;20023;-40
2022/03/23 11:44:24;;;;;;;20.92;18.73;;;31.80;27.00;;;;;;5119527;27;20019;-40
2022/03/23 11:46:53;;;;;;;20.30;17.50;;;31.80;27.90;;;;;;5121512;27;20068;-40
2022/03/23 11:49:33;;;;;;;21.92;17.92;;;31.40;28.30;;;;;;5125233;27;20026;-41
2022/03/23 11:52:33;;;;;;;21.60;17.60;;;31.40;27.50;;;;;;5119152;27;20032;-39
2022/03/23 11:55:42;;;;;;;19.60;17.10;;;31.60;27.50;;;;;;5128461;27;20511;-41
2022/03/23 11:58:16;;;;;;;21.15;18.90;;;31.20;28.00;;;;;;5040309;28;20099;-40
2022/03/23 12:00:45;;;;;;;21.33;18.45;;;30.00;27.60;;;;;;5109264;27;20039;-40
2022/03/23 12:03:10;;;;;;;23.13;18.50;;;30.00;27.60;;;;;;5108426;27;20276;-40
2022/03/23 12:05:48;;;;;;;235.52;212.00;;;29.80;28.10;;;;;;5123981;27;20283;-40
2022/03/23 12:08:50;;;;;;;22.63;20.23;;;29.50;28.30;;;;;;5123595;27;20496;-40
2022/03/23 12:11:34;;;;;;;21.75;17.98;;;28.90;28.40;;;;;;5122258;27;20072;-39
2022/03/23 12:14:01;;;;;;;21.70;19.40;;;29.10;29.70;;;;;;5115671;27;20644;-40
2022/03/23 12:16:46;;;;;;;23.58;20.67;;;29.10;28.60;;;;;;5121706;27;20030;-41
2022/03/23 12:19:16;;;;;;;23.75;21.10;;;28.90;29.10;;;;;;5118924;27;20023;-40
2022/03/23 12:21:52;;;;;;;26.48;22.30;;;28.70;30.10;;;;;;5118239;27;20076;-40
2022/03/23 12:24:32;;;;;;;27.58;21.88;;;28.50;29.90;;;;;;5118488;27;20113;-39
2022/03/23 12:27:03;;;;;;;29.83;22.40;;;28.30;30.00;;;;;;5116294;27;20344;-40
2022/03/23 12:29:33;;;;;;;27.77;23.95;;;27.30;30.00;;;;;;5113913;27;20027;-39
2022/03/23 12:32:08;;;;;;;29.35;22.52;;;27.20;30.20;;;;;;5115853;27;20536;-39
2022/03/23 12:34:35;;;;;;;28.40;23.63;;;26.40;31.00;;;;;;5114785;27;20027;-39
2022/03/23 12:37:12;;;;;;;26.30;22.33;;;25.80;31.80;;;;;;5111063;27;20023;-39
2022/03/23 12:39:46;;;;;;;29.60;23.58;;;25.90;32.00;;;;;;5118067;27;20075;-39
2022/03/23 12:42:12;;;;;;;29.13;22.00;;;25.40;32.00;;;;;;5118385;27;20437;-39
2022/03/23 12:44:39;;;;;;;31.13;23.30;;;25.50;31.70;;;;;;5121629;27;20121;-39
2022/03/23 12:47:40;;;;;;;26.63;20.23;;;25.40;32.00;;;;;;5120744;27;20230;-39
2022/03/23 12:58:36;;;;;;;27.65;21.15;;;24.30;30.80;;;;;;5108540;28;20120;-38
2022/03/23 13:01:13;;;;;;;29.10;23.08;;;24.10;32.70;;;;;;5125861;27;20034;-38
2022/03/23 13:03:38;;;;;;;27.88;21.05;;;23.90;34.30;;;;;;5112124;27;20415;-38
2022/03/23 13:06:07;;;;;;;34.15;24.20;;;24.10;32.80;;;;;;5121255;27;20019;-38
2022/03/23 13:08:33;;;;;;;33.67;23.88;;;24.00;33.20;;;;;;5131255;27;20023;-38